• Join FlightAware (Why Join?)
  • Login
  • US Flag 
06:53AM EST


 

Airport Tracker/Info


-or-


 

Live Flight TrackerFlight Track Log ✈ VOZ905 ✈ 01-May-2013 ✈ YSSY / SYD - YBBN / BNE

Flight Track Log - Related Links

Times and Time Zones

All times are in EDT time to prevent confusion due to time zone crossing. See the VOZ905 flight status page for this flight to view local times or setup timezone preferences in your user account.

Time Position Orientation Groundspeed Altitude Reporting Facility
EDT Latitude Longitude Course Direction KTS MPH feet Rate Location/Type
04:45PM -33.9470 151.1880 360° North 152 175 400  Level FlightAware
04:45PM -33.9180 151.2000 19° North 181 208 1,900 2,040 Climbing FlightAware
04:46PM -33.8950 151.2210 37° Northeast 221 254 2,800 1,740 Climbing FlightAware
04:46PM -33.8740 151.2400 37° Northeast 241 277 3,500 1,260 Climbing FlightAware
04:47PM -33.8450 151.2640 35° Northeast 295 339 4,000 1,020 Climbing FlightAware
04:47PM -33.8350 151.2740 40° Northeast 303 349 4,200 2,880 Climbing FlightAware
04:47PM -33.8180 151.3050 57° Northeast 320 368 5,200 3,780 Climbing FlightAware
04:48PM -33.8075 151.3482 57° Northeast 322 371 6,600 3,000 Climbing Aus ATC (RADAR)
04:48PM -33.8050 151.3560 57° Northeast 320 368 6,700 2,220 Climbing FlightAware
04:48PM -33.7770 151.3910 46° Northeast 319 367 8,000 2,820 Climbing FlightAware
04:48PM -33.7590 151.3980 18° North 318 366 8,600 3,840 Climbing FlightAware
04:49PM -33.7345 151.4071 18° North 324 373 9,600 2,580 Climbing Aus ATC (RADAR)
04:49PM -33.7210 151.4120 18° North 319 367 9,900 2,820 Climbing FlightAware
04:50PM -33.6390 151.4450 19° North 339 390 12,900 3,420 Climbing FlightAware
04:50PM -33.5706 151.4724 19° North 350 403 15,400 3,060 Climbing Aus ATC (RADAR)
04:51PM -33.5720 151.4710 19° North 353 406 15,200 2,640 Descending FlightAware
04:51PM -33.5050 151.4980 19° North 366 421 17,400 3,540 Climbing FlightAware
04:51PM -33.4707 151.5120 19° North 363 418 18,600 2,880 Climbing Aus ATC (RADAR)
04:52PM -33.4500 151.5200 19° North 374 430 19,100 2,640 Climbing FlightAware
04:53PM -33.3664 151.5535 19° North 383 441 21,400 2,520 Climbing Aus ATC (RADAR)
04:53PM -33.3680 151.5530 19° North 391 450 21,200 1,800 Descending FlightAware
04:53PM -33.3020 151.5790 18° North 404 465 22,600 2,700 Climbing FlightAware
04:54PM -33.2515 151.5995 18° North 407 468 23,900 2,160 Climbing Aus ATC (RADAR)
04:54PM -33.2180 151.6130 18° North 416 479 24,400 2,100 Climbing FlightAware
04:55PM -33.1362 151.6450 18° North 418 481 26,100 2,100 Climbing Aus ATC (RADAR)
04:55PM -33.1430 151.6420 18° North 425 489 25,800 1,620 Descending FlightAware
04:55PM -33.0690 151.6710 18° North 431 496 27,300 2,460 Climbing FlightAware
04:56PM -33.0087 151.6955 18° North 431 496 28,500 1,980 Climbing Aus ATC (RADAR)
04:56PM -32.9780 151.7080 18° North 438 504 28,800 1,200 Climbing FlightAware
04:57PM -32.9030 151.7370 18° North 448 516 29,700 1,440 Climbing FlightAware
04:58PM -32.8110 151.7730 18° North 458 527 30,900 1,800 Climbing FlightAware
04:58PM -32.7462 151.7988 18° North 455 524 31,900 1,560 Climbing Aus ATC (RADAR)
04:58PM -32.7500 151.7970 18° North 462 532 31,700 1,620 Descending FlightAware
04:59PM -32.6087 151.8525 18° North 464 534 33,800 1,560 Climbing Aus ATC (RADAR)
04:59PM -32.6200 151.8480 18° North 463 533 33,400 900 Descending FlightAware
05:00PM -32.5240 151.8850 18° North 468 539 34,500 1,200 Climbing FlightAware
05:01PM -32.4420 151.9170 18° North 479 551 35,100 1,260 Climbing FlightAware
05:01PM -32.3808 151.9412 18° North 478 550 35,900 1,320 Climbing Aus ATC (RADAR)
05:01PM -32.3630 151.9480 18° North 478 550 36,000 1,740 Climbing FlightAware
05:02PM -32.2650 151.9860 18° North 458 527 37,700 2,280 Climbing FlightAware
05:02PM -32.2016 152.0105 18° North 447 514 38,700 1,320 Climbing Aus ATC (RADAR)
05:03PM -32.1920 152.0140 18° North 452 520 38,600 600 Descending FlightAware
05:03PM -32.0915 152.0529 18° North 454 522 39,300 480 Climbing Aus ATC (RADAR)
05:03PM -32.0920 152.0530 18° North 459 528 39,000 180 Descending FlightAware
05:04PM -32.0264 152.0782 18° North 459 528 39,400 480 Climbing Aus ATC (RADAR)
05:04PM -32.0200 152.0800 18° North 467 537 39,300 780 Descending FlightAware
05:05PM -31.9270 152.1170 19° North 465 535 40,100 1,080 Climbing FlightAware
05:05PM -31.8470 152.1480 18° North 453 521 41,000 900 Climbing FlightAware
05:06PM -31.7836 152.1726 18° North 449 517 41,200  Climbing Aus ATC (RADAR)
05:06PM -31.7820 152.1730 18° North 453 521 41,000  Descending FlightAware
05:07PM -31.6976 152.2050 18° North 452 520 41,200  Climbing Aus ATC (RADAR)
05:07PM -31.6850 152.2090 18° North 454 522 41,000  Descending FlightAware
05:07PM -31.6337 152.2296 18° North 451 519 41,200  Climbing Aus ATC (RADAR)
05:07PM -31.6110 152.2380 18° North 450 518 41,000  Descending FlightAware
05:08PM -31.5191 152.2728 18° North 447 514 41,200  Climbing Aus ATC (RADAR)
05:08PM -31.5130 152.2750 18° North 450 518 41,000  Descending FlightAware
05:09PM -31.4207 152.3109 18° North 449 517 41,200  Climbing Aus ATC (RADAR)
05:09PM -31.4220 152.3100 18° North 450 518 41,000  Descending FlightAware
05:10PM -31.3119 152.3524 18° North 450 518 41,200  Climbing Aus ATC (RADAR)
05:10PM -31.3170 152.3490 18° North 450 518 41,000 -300 Descending FlightAware
05:11PM -31.2290 152.3830 18° North 450 518 41,000 120 Level FlightAware
05:11PM -31.1584 152.4100 18° North 445 512 41,200  Climbing Aus ATC (RADAR)
05:11PM -31.1520 152.4120 18° North 449 517 41,000  Descending FlightAware
05:12PM -31.0594 152.4469 18° North 446 513 41,200  Climbing Aus ATC (RADAR)
05:12PM -31.0730 152.4420 18° North 448 516 41,000 -300 Descending FlightAware
05:13PM -30.9790 152.4770 18° North 444 511 41,000  Level FlightAware
05:13PM -30.8940 152.5090 18° North 441 507 41,000  Level FlightAware
05:14PM -30.8070 152.5410 18° North 440 506 41,000 180 Level FlightAware
05:14PM -30.7672 152.5563 18° North 437 503 41,200  Climbing Aus ATC (RADAR)
05:15PM -30.7300 152.5700 18° North 439 505 41,000 -240 Descending FlightAware
05:15PM -30.6590 152.5970 18° North 438 504 41,000  Level FlightAware
05:16PM -30.5650 152.6320 18° North 438 504 41,000 120 Level FlightAware
05:17PM -30.5068 152.6537 18° North 435 501 41,200  Climbing Aus ATC (RADAR)
05:17PM -30.4970 152.6580 18° North 438 504 41,000  Descending FlightAware
05:18PM -30.4107 152.6898 18° North 433 498 41,200  Climbing Aus ATC (RADAR)
05:18PM -30.4100 152.6900 18° North 438 504 41,000 -300 Descending FlightAware
05:18PM -30.3250 152.7220 18° North 439 505 41,000 120 Level FlightAware
05:19PM -30.2426 152.7533 18° North 439 505 41,200  Climbing Aus ATC (RADAR)
05:19PM -30.2380 152.7540 18° North 440 506 41,000 -300 Descending FlightAware
05:20PM -30.1580 152.7840 18° North 439 505 41,000  Level FlightAware
05:20PM -30.0800 152.8120 17° North 439 505 41,000 180 Level FlightAware
05:21PM -30.0336 152.8291 17° North 433 498 41,200  Climbing Aus ATC (RADAR)
05:21PM -30.0040 152.8400 17° North 442 509 41,000  Descending FlightAware
05:21PM -29.9515 152.8603 17° North 442 509 41,200  Climbing Aus ATC (RADAR)
05:22PM -29.9190 152.8720 17° North 441 507 41,000 -660 Descending FlightAware
05:22PM -29.8783 152.8869 17° North 434 499 40,800 -2,040 Descending Aus ATC (RADAR)
05:23PM -29.8280 152.9050 17° North 437 503 39,500 -2,340 Descending FlightAware
05:23PM -29.7583 152.9307 17° North 438 504 38,400 -1,800 Descending Aus ATC (RADAR)
05:23PM -29.7540 152.9320 17° North 432 497 38,300 -1,140 Descending FlightAware
05:24PM -29.6957 152.9519 17° North 424 488 37,800 -1,500 Descending Aus ATC (RADAR)
05:24PM -29.6790 152.9600 17° North 418 481 37,300 -1,740 Descending FlightAware
05:25PM -29.5960 152.9900 17° North 406 467 36,200 -1,500 Descending FlightAware
05:25PM -29.5307 153.0149 17° North 404 465 35,400 -1,680 Descending Aus ATC (RADAR)
05:25PM -29.5250 153.0160 17° North 399 459 35,100 -1,680 Descending FlightAware
05:26PM -29.4450 153.0450 18° North 389 448 34,000 -1,320 Descending FlightAware
05:26PM -29.4089 153.0581 18° North 388 447 33,700 -1,260 Descending Aus ATC (RADAR)
05:27PM -29.3838 153.0672 18° North 384 442 33,300 -1,740 Descending Aus ATC (RADAR)
05:27PM -29.3770 153.0700 18° North 379 436 33,100 -1,380 Descending FlightAware
05:27PM -29.3256 153.0881 18° North 377 434 32,500 -1,500 Descending Aus ATC (RADAR)
05:27PM -29.3110 153.0940 18° North 371 427 32,100 -1,740 Descending FlightAware
05:28PM -29.2390 153.1200 17° North 366 421 30,900 -1,380 Descending FlightAware
05:29PM -29.1726 153.1451 17° North 361 415 30,200 -1,380 Descending Aus ATC (RADAR)
05:29PM -29.1770 153.1430 17° North 358 412 30,000 -1,200 Descending FlightAware
05:30PM -29.1060 153.1680 17° North 339 390 29,300 -1,080 Descending FlightAware
05:30PM -29.0510 153.2040 30° Northeast 345 397 28,500 -1,320 Descending FlightAware
05:30PM -29.0400 153.2280 62° Northeast 350 403 28,100 -1,680 Descending FlightAware
05:31PM -29.0220 153.2940 73° East 350 403 27,000 -1,560 Descending FlightAware
05:32PM -29.0020 153.3470 67° East 340 391 26,300 -1,260 Descending FlightAware
05:32PM -28.9739 153.3826 67° East 340 391 25,900 -1,080 Descending Aus ATC (RADAR)
05:32PM -28.9580 153.3990 67° East 332 382 25,600 -720 Descending FlightAware
05:33PM -28.9362 153.4260 67° East 332 382 25,500 -780 Descending Aus ATC (RADAR)
05:33PM -28.9150 153.4480 67° East 331 381 25,100 -1,020 Descending FlightAware
05:33PM -28.8940 153.4580 23° Northeast 318 366 24,900 -540 Descending FlightAware
05:34PM -28.8677 153.4729 23° Northeast 274 315 24,800 -780 Descending Aus ATC (RADAR)
05:34PM -28.8350 153.4610 23° Northeast 328 377 24,400 -720 Descending FlightAware
05:34PM -28.8059 153.4605 23° Northeast 344 396 24,400 -720 Level Aus ATC (RADAR)
05:35PM -28.7650 153.4660 23° Northeast 335 386 23,900 -900 Descending FlightAware
05:35PM -28.7020 153.4700 North 332 382 23,400 -780 Descending FlightAware
05:36PM -28.6350 153.4750 North 327 376 22,800 -660 Descending FlightAware
05:37PM -28.5742 153.4781 North 325 374 22,500 -780 Descending Aus ATC (RADAR)
05:37PM -28.5740 153.4780 North 326 375 22,300 -900 Descending FlightAware
05:37PM -28.5142 153.4819 North 323 372 21,900 -900 Descending Aus ATC (RADAR)
05:37PM -28.5150 153.4820 North 324 373 21,700 -1,080 Descending FlightAware
05:38PM -28.4480 153.4860 North 318 366 21,100 -900 Descending FlightAware
05:39PM -28.3890 153.4900 North 308 354 20,500 -900 Descending FlightAware
05:40PM -28.3250 153.4940 North 308 354 19,900 -900 Descending FlightAware
05:40PM -28.2680 153.4970 North 307 353 19,300 -840 Descending FlightAware
05:41PM -28.2398 153.5010 North 308 354 19,100 -1,380 Descending Aus ATC (RADAR)
05:41PM -28.2110 153.5010 North 304 350 18,400 -2,340 Descending FlightAware
05:41PM -28.1690 153.5030 North 320 368 17,100 -2,100 Descending FlightAware
05:42PM -28.1090 153.4940 352° North 317 365 16,000 -1,500 Descending FlightAware
05:42PM -28.0795 153.4889 352° North 317 365 15,700 -1,620 Descending Aus ATC (RADAR)
05:43PM -28.0440 153.4820 352° North 310 357 14,800 -1,740 Descending FlightAware
05:43PM -27.9880 153.4720 351° North 305 351 13,800 -1,260 Descending FlightAware
05:44PM -27.9526 153.4659 351° North 305 351 13,500 -1,380 Descending Aus ATC (RADAR)
05:44PM -27.9320 153.4620 351° North 302 348 12,900 -1,560 Descending FlightAware
05:44PM -27.9045 153.4573 351° North 300 345 12,600 -1,500 Descending Aus ATC (RADAR)
05:45PM -27.8720 153.4520 351° North 297 342 11,800 -1,440 Descending FlightAware
05:45PM -27.8228 153.4433 351° North 294 338 11,200 -1,380 Descending Aus ATC (RADAR)
05:46PM -27.8160 153.4420 351° North 292 336 10,900 -1,860 Descending FlightAware
05:46PM -27.7560 153.4310 351° North 291 335 9,600 -1,680 Descending FlightAware
05:47PM -27.7220 153.4250 351° North 291 335 9,000 -1,680 Descending FlightAware
05:47PM -27.7030 153.4210 349° North 291 335 8,500 -1,620 Descending FlightAware
05:47PM -27.6840 153.4140 342° North 290 334 8,200 -1,080 Descending FlightAware
05:48PM -27.6470 153.3970 338° Northwest 276 318 7,700 -660 Descending FlightAware
05:48PM -27.6239 153.3866 338° Northwest 272 313 7,700 -720 Level Aus ATC (RADAR)
05:48PM -27.6190 153.3850 338° Northwest 267 307 7,400 -1,080 Descending FlightAware
05:49PM -27.5846 153.3687 338° Northwest 261 300 7,100 -1,020 Descending Aus ATC (RADAR)
05:49PM -27.5870 153.3700 338° Northwest 259 298 6,900 -1,800 Descending FlightAware
05:49PM -27.5710 153.3620 336° Northwest 256 295 6,600 -1,200 Descending FlightAware
05:49PM -27.5460 153.3510 339° North 255 293 6,200 -1,200 Descending FlightAware
05:50PM -27.5080 153.3327 339° North 254 292 5,600 -1,380 Descending Aus ATC (RADAR)
05:50PM -27.5080 153.3320 339° North 250 288 5,400 -1,860 Descending FlightAware
05:50PM -27.4780 153.3160 335° Northwest 247 284 4,600 -1,200 Descending FlightAware
05:51PM -27.4520 153.3020 334° Northwest 233 268 4,300 -300 Descending FlightAware
05:51PM -27.4282 153.2893 334° Northwest 228 262 4,400 -420 Climbing Aus ATC (RADAR)
05:51PM -27.4230 153.2870 334° Northwest 215 247 4,100 -1,320 Descending FlightAware
05:52PM -27.4010 153.2750 334° Northwest 203 234 3,700 -1,020 Descending FlightAware
05:52PM -27.3770 153.2620 334° Northwest 198 228 3,200 -840 Descending FlightAware
05:52PM -27.3564 153.2512 334° Northwest 197 227 3,000 -1,020 Descending Aus ATC (RADAR)
05:53PM -27.3520 153.2490 334° Northwest 193 222 2,700 -1,320 Descending FlightAware
05:53PM -27.3330 153.2350 327° Northwest 191 220 2,300 -1,080 Descending FlightAware
05:53PM -27.3290 153.2210 288° West 192 221 2,000 -1,200 Descending FlightAware
05:54PM -27.3260 153.2070 284° West 190 219 1,700 -1,020 Descending FlightAware
05:54PM -27.3220 153.1930 288° West 179 206 1,500 -900 Descending FlightAware
05:54PM -27.3180 153.1760 285° West 170 196 1,200 -540 Descending FlightAware
05:54PM -27.3240 153.1620 285° West 166 191 1,200 -900 Level Aus ATC (RADAR)
05:54PM -27.3260 153.1620 285° West 154 177 900 -1,320 Descending FlightAware
05:55PM -27.3440 153.1520 206° Southwest 142 163 500 -780 Descending FlightAware
05:55PM -27.3580 153.1440 207° Southwest 132 152 200 -720 Descending FlightAware
05:56PM -27.3730 153.1350 208° Southwest 132 152 -420 Descending FlightAware
05:56PM -27.3820 153.1300 206° Southwest 115 132  Level FlightAware